Time;durP1;ratioP1;P1;durP2;ratioP2;P2;SDS_P1;SDS_P2;PMS_P1;PMS_P2;Temp;Humidity;BMP_temperature;BMP_pressure;BME280_temperature;BME280_humidity;BME280_pressure;Samples;Min_cycle;Max_cycle;Signal;HPM_P1;HPM_P2
2021/08/05 00:00:25;;;;;;;3.10;1.38;;;33.40;93.50;;;;;;5013742;28;20237;-92
2021/08/05 00:02:58;;;;;;;2.38;1.60;;;33.90;91.80;;;;;;4997526;28;20261;-91
2021/08/05 00:05:31;;;;;;;2.13;1.50;;;34.00;91.80;;;;;;5017391;28;20198;-91
2021/08/05 00:11:06;;;;;;;1.90;1.50;;;33.60;92.00;;;;;;5295305;23;20241;-92
2021/08/05 00:13:46;;;;;;;1.48;1.30;;;33.50;92.80;;;;;;5012106;28;20282;-92
2021/08/05 00:16:25;;;;;;;1.45;1.35;;;33.50;92.30;;;;;;5014498;28;20197;-91
2021/08/05 00:18:58;;;;;;;3.72;1.38;;;33.60;92.50;;;;;;5016274;28;20214;-92
2021/08/05 00:21:33;;;;;;;1.90;1.50;;;33.60;92.40;;;;;;5001506;28;20241;-92
2021/08/05 00:24:09;;;;;;;2.17;1.60;;;33.50;92.00;;;;;;4985465;28;20206;-91
2021/08/05 00:26:40;;;;;;;4.45;1.50;;;33.30;92.30;;;;;;4985357;28;20206;-90
2021/08/05 00:29:12;;;;;;;1.90;1.40;;;33.50;92.00;;;;;;5002194;28;20210;-92
2021/08/05 00:31:48;;;;;;;2.85;1.55;;;33.20;91.80;;;;;;4984330;28;20669;-91
2021/08/05 00:34:19;;;;;;;2.45;1.40;;;33.30;93.00;;;;;;5001928;28;20297;-91
2021/08/05 00:36:50;;;;;;;1.95;1.70;;;33.50;91.60;;;;;;5002839;28;20302;-91
2021/08/05 00:39:22;;;;;;;1.63;1.42;;;33.60;91.40;;;;;;4981903;28;20234;-91
2021/08/05 00:41:53;;;;;;;2.00;1.58;;;33.70;91.10;;;;;;4967144;28;20234;-92
2021/08/05 00:44:24;;;;;;;2.13;1.52;;;33.60;90.80;;;;;;5005191;28;20182;-91
2021/08/05 00:46:58;;;;;;;1.90;1.75;;;33.50;91.50;;;;;;5018665;28;20285;-91
2021/08/05 00:49:32;;;;;;;1.35;1.17;;;33.50;90.70;;;;;;5019727;28;20194;-91
2021/08/05 00:52:05;;;;;;;1.98;1.50;;;33.40;90.60;;;;;;5198881;23;20237;-90
2021/08/05 00:54:41;;;;;;;3.25;1.52;;;33.40;90.60;;;;;;5012041;28;20213;-90
2021/08/05 00:57:12;;;;;;;1.90;1.45;;;33.50;90.20;;;;;;5014567;28;20241;-91
2021/08/05 00:59:43;;;;;;;3.20;1.50;;;33.30;90.70;;;;;;5007870;28;20213;-90
2021/08/05 01:02:19;;;;;;;1.58;1.45;;;33.30;90.80;;;;;;4999981;28;20234;-91
2021/08/05 01:04:55;;;;;;;2.60;1.63;;;33.20;90.40;;;;;;4982548;28;20260;-91
2021/08/05 01:07:39;;;;;;;2.40;1.58;;;33.20;90.10;;;;;;4981805;28;20238;-91
2021/08/05 01:10:15;;;;;;;4.57;1.60;;;33.00;90.40;;;;;;4992557;28;20630;-92
2021/08/05 01:12:59;;;;;;;3.30;1.50;;;33.00;91.00;;;;;;4992354;28;20542;-91
2021/08/05 01:15:31;;;;;;;2.70;1.38;;;33.10;91.00;;;;;;4987818;28;20302;-92
2021/08/05 01:18:08;;;;;;;3.70;1.40;;;33.40;89.90;;;;;;4992240;28;20215;-92
2021/08/05 01:20:43;;;;;;;1.73;1.50;;;33.90;89.30;;;;;;4991097;28;20225;-91
2021/08/05 01:23:29;;;;;;;2.70;1.80;;;34.30;89.50;;;;;;4993838;28;20265;-91
2021/08/05 01:26:10;;;;;;;2.28;1.65;;;34.50;88.10;;;;;;4995942;28;20230;-91
2021/08/05 01:28:47;;;;;;;3.38;1.40;;;34.50;88.20;;;;;;4997330;28;20215;-90
2021/08/05 01:31:19;;;;;;;2.95;1.80;;;34.60;88.10;;;;;;4995733;28;20222;-90
2021/08/05 01:33:56;;;;;;;3.22;1.60;;;34.70;88.80;;;;;;4998105;28;20238;-92
2021/08/05 01:36:30;;;;;;;1.77;1.55;;;34.80;87.30;;;;;;5000370;28;20225;-92
2021/08/05 01:39:03;;;;;;;2.65;2.03;;;34.80;87.40;;;;;;5018291;28;20194;-91
2021/08/05 01:41:36;;;;;;;2.47;1.98;;;34.90;88.70;;;;;;5059978;23;20233;-91
2021/08/05 01:44:12;;;;;;;3.03;1.50;;;34.80;87.20;;;;;;5790622;23;20230;-92
2021/08/05 01:46:48;;;;;;;3.03;1.70;;;34.60;87.40;;;;;;5002334;28;20190;-91
2021/08/05 01:49:20;;;;;;;1.90;1.50;;;34.90;86.50;;;;;;5002924;28;20302;-90
2021/08/05 01:51:52;;;;;;;2.97;1.77;;;34.80;88.00;;;;;;5017650;28;20265;-91
2021/08/05 01:54:24;;;;;;;3.50;2.08;;;34.80;87.00;;;;;;5019198;28;20194;-91
2021/08/05 01:56:55;;;;;;;3.25;1.80;;;35.00;86.30;;;;;;5018674;28;20213;-92
2021/08/05 02:02:22;;;;;;;4.13;2.03;;;35.00;87.40;;;;;;5101096;22;2714991;-92
2021/08/05 02:05:06;;;;;;;4.60;1.80;;;34.70;87.40;;;;;;5112225;28;20221;-92
2021/08/05 02:10:37;;;;;;;4.20;1.90;;;33.80;88.90;;;;;;5111318;28;20183;-92
2021/08/05 02:13:14;;;;;;;2.25;1.85;;;32.70;90.20;;;;;;5111702;28;20191;-93
2021/08/05 02:15:53;;;;;;;3.05;1.80;;;31.90;91.40;;;;;;5110163;28;20209;-93
2021/08/05 02:18:30;;;;;;;2.67;1.70;;;31.00;91.60;;;;;;5110577;28;20229;-93
2021/08/05 02:21:04;;;;;;;2.75;1.85;;;30.30;92.50;;;;;;5112502;28;20219;-92
2021/08/05 02:23:38;;;;;;;1.60;1.50;;;29.80;93.40;;;;;;5185499;22;20244;-90
2021/08/05 02:26:10;;;;;;;3.03;1.80;;;29.50;94.00;;;;;;5070379;28;20236;-93
2021/08/05 02:28:43;;;;;;;3.77;1.80;;;29.20;94.20;;;;;;5069954;28;20200;-90
2021/08/05 02:31:16;;;;;;;2.30;1.70;;;29.10;94.20;;;;;;5066144;28;20224;-93
2021/08/05 02:33:54;;;;;;;2.37;2.03;;;28.80;94.00;;;;;;5052429;28;20197;-93
2021/08/05 02:36:30;;;;;;;2.10;1.60;;;28.60;93.70;;;;;;5066701;28;20204;-93
2021/08/05 02:39:01;;;;;;;2.60;1.60;;;28.30;93.80;;;;;;5128515;22;20248;-92
2021/08/05 02:41:35;;;;;;;4.07;1.60;;;28.20;94.10;;;;;;5087545;28;20229;-92
2021/08/05 02:49:33;;;;;;;2.43;1.40;;;27.40;95.90;;;;;;5073273;28;20208;-92
2021/08/05 02:52:05;;;;;;;1.57;1.10;;;27.20;96.10;;;;;;5071707;28;20208;-92
2021/08/05 02:54:38;;;;;;;2.50;1.20;;;27.00;96.80;;;;;;5070623;28;20231;-92
2021/08/05 02:57:09;;;;;;;1.47;0.90;;;26.70;97.20;;;;;;5070501;28;20264;-92
2021/08/05 02:59:43;;;;;;;1.53;1.10;;;26.60;97.60;;;;;;5070519;28;20192;-91
2021/08/05 03:02:18;;;;;;;1.50;0.90;;;26.40;97.80;;;;;;5335266;23;20230;-90
2021/08/05 03:04:52;;;;;;;1.50;1.17;;;26.20;98.30;;;;;;5109694;28;20195;-91
2021/08/05 03:07:25;;;;;;;2.43;1.00;;;26.00;98.90;;;;;;5111432;28;20199;-91
2021/08/05 03:09:59;;;;;;;3.33;1.10;;;25.90;99.30;;;;;;5096542;28;20186;-91
2021/08/05 03:17:47;;;;;;;1.40;0.70;;;25.50;99.90;;;;;;5035729;28;20236;-93
2021/08/05 03:20:22;;;;;;;0.83;0.83;;;25.40;99.90;;;;;;5034667;28;20210;-93
2021/08/05 03:22:57;;;;;;;2.23;0.80;;;25.30;99.90;;;;;;5033757;28;20206;-93
2021/08/05 03:25:28;;;;;;;5.67;1.50;;;25.20;99.90;;;;;;5024690;28;20206;-91
2021/08/05 03:33:26;;;;;;;12.60;3.20;;;24.80;99.90;;;;;;4991443;28;20246;-92
2021/08/05 03:36:01;;;;;;;5.43;2.33;;;24.50;99.90;;;;;;4987458;28;20635;-91
2021/08/05 03:38:33;;;;;;;4.10;1.30;;;24.20;99.90;;;;;;4986013;28;20222;-92
2021/08/05 03:44:08;;;;;;;3.10;1.07;;;23.70;99.90;;;;;;4991492;28;20265;-91
2021/08/05 03:49:42;;;;;;;1.47;0.80;;;23.50;99.90;;;;;;4994388;28;20203;-91
2021/08/05 03:52:21;;;;;;;1.30;0.90;;;23.40;99.90;;;;;;4989073;28;20258;-91
2021/08/05 03:55:04;;;;;;;1.10;0.70;;;23.40;99.90;;;;;;4993832;28;20643;-91
2021/08/05 03:57:38;;;;;;;3.27;0.80;;;23.20;99.90;;;;;;4990179;28;20210;-91
2021/08/05 04:00:11;;;;;;;2.77;0.80;;;23.20;99.90;;;;;;4981047;28;20218;-92
2021/08/05 04:02:43;;;;;;;2.23;0.73;;;23.10;99.90;;;;;;4983718;28;20711;-91
2021/08/05 04:05:15;;;;;;;3.80;0.80;;;23.10;99.90;;;;;;4986846;28;20227;-91
2021/08/05 04:07:48;;;;;;;2.53;0.70;;;22.90;99.90;;;;;;4983796;28;20221;-91
2021/08/05 04:10:20;;;;;;;1.63;0.80;;;22.80;99.90;;;;;;4980396;28;20212;-91
2021/08/05 04:12:51;;;;;;;4.20;0.70;;;22.80;99.90;;;;;;4983477;28;20266;-91
2021/08/05 04:15:31;;;;;;;0.90;0.60;;;22.70;99.90;;;;;;4991254;28;20219;-92
2021/08/05 04:18:03;;;;;;;1.30;0.70;;;22.60;99.90;;;;;;4999010;28;20257;-91
2021/08/05 04:20:36;;;;;;;1.90;0.70;;;22.50;99.90;;;;;;4996034;28;20198;-92
2021/08/05 04:29:07;;;;;;;0.87;0.50;;;22.30;99.90;;;;;;4980758;28;20240;-92
2021/08/05 04:31:39;;;;;;;0.40;0.40;;;22.10;99.90;;;;;;4996051;28;20234;-90
2021/08/05 04:34:14;;;;;;;0.87;0.40;;;22.00;99.90;;;;;;4989460;28;20219;-91
2021/08/05 04:36:48;;;;;;;0.63;0.40;;;22.00;99.90;;;;;;4993905;28;20210;-90
2021/08/05 04:39:21;;;;;;;0.30;0.30;;;21.90;99.90;;;;;;4996521;28;20246;-89
2021/08/05 04:41:54;;;;;;;1.37;0.80;;;21.80;99.90;;;;;;4994192;28;20209;-90
2021/08/05 04:44:25;;;;;;;1.17;0.47;;;21.80;99.90;;;;;;4966389;28;20302;-91
2021/08/05 04:46:58;;;;;;;1.23;0.40;;;21.80;99.90;;;;;;4967158;28;20614;-90
2021/08/05 04:49:30;;;;;;;1.63;0.50;;;21.70;99.90;;;;;;4976728;28;20257;-90
2021/08/05 04:52:05;;;;;;;0.83;0.40;;;21.60;99.90;;;;;;4989803;28;20259;-92
2021/08/05 04:54:46;;;;;;;2.83;0.83;;;21.60;99.90;;;;;;4988947;28;20221;-90
2021/08/05 04:57:20;;;;;;;1.37;0.60;;;21.60;99.90;;;;;;4989696;28;20219;-91
2021/08/05 04:59:51;;;;;;;0.57;0.50;;;21.50;99.90;;;;;;4979993;28;20306;-91
2021/08/05 05:02:23;;;;;;;1.40;0.60;;;21.40;99.90;;;;;;4983143;28;20266;-91
2021/08/05 05:04:55;;;;;;;3.60;1.50;;;21.40;99.90;;;;;;4990992;28;20210;-91
2021/08/05 05:07:28;;;;;;;1.97;0.87;;;21.40;99.90;;;;;;4990841;28;20242;-91
2021/08/05 05:10:06;;;;;;;5.20;1.50;;;21.40;99.90;;;;;;4992139;28;20239;-90
2021/08/05 05:12:37;;;;;;;1.40;0.70;;;21.20;99.90;;;;;;4979272;28;20248;-91
2021/08/05 05:15:09;;;;;;;1.20;0.70;;;21.10;99.90;;;;;;4985492;28;20233;-91
2021/08/05 05:17:41;;;;;;;1.13;0.60;;;21.10;99.90;;;;;;4980066;28;20282;-92
2021/08/05 05:20:15;;;;;;;0.97;0.50;;;21.00;99.90;;;;;;4980153;28;20596;-91
2021/08/05 05:22:47;;;;;;;2.17;0.60;;;21.00;99.90;;;;;;4982321;28;20639;-90
2021/08/05 05:25:21;;;;;;;1.73;0.60;;;21.00;99.90;;;;;;4984024;28;20207;-91
2021/08/05 05:28:01;;;;;;;0.60;0.40;;;20.90;99.90;;;;;;4991591;28;20307;-91
2021/08/05 05:36:16;;;;;;;2.73;0.70;;;20.80;99.90;;;;;;5047416;23;20257;-91
2021/08/05 05:38:48;;;;;;;1.23;0.50;;;20.80;99.90;;;;;;5013533;28;20214;-91
2021/08/05 05:41:21;;;;;;;3.90;0.73;;;20.70;99.90;;;;;;5001753;28;20221;-91
2021/08/05 05:43:52;;;;;;;1.10;0.50;;;20.70;99.90;;;;;;5001566;28;20210;-92
2021/08/05 05:46:26;;;;;;;1.70;0.53;;;20.60;99.90;;;;;;5003387;28;20206;-90
2021/08/05 05:48:58;;;;;;;1.47;0.40;;;20.60;99.90;;;;;;4998513;28;20216;-90
2021/08/05 05:51:30;;;;;;;2.13;0.57;;;20.60;99.90;;;;;;4998709;28;20651;-90
2021/08/05 05:54:02;;;;;;;1.60;0.40;;;20.50;99.90;;;;;;4999082;28;20210;-91
2021/08/05 05:56:36;;;;;;;0.83;0.53;;;20.50;99.90;;;;;;4997917;28;20637;-90
2021/08/05 05:59:07;;;;;;;0.93;0.57;;;20.50;99.90;;;;;;4997990;28;20214;-91
2021/08/05 06:01:38;;;;;;;1.50;0.73;;;20.40;99.90;;;;;;5012798;28;20268;-90
2021/08/05 06:04:10;;;;;;;2.33;1.00;;;20.40;99.90;;;;;;5026265;28;20209;-92
2021/08/05 06:06:41;;;;;;;1.67;0.83;;;20.40;99.90;;;;;;5019466;28;20210;-92
2021/08/05 06:09:12;;;;;;;2.90;0.77;;;20.30;99.90;;;;;;5018925;28;20293;-91
2021/08/05 06:11:45;;;;;;;0.73;0.57;;;20.30;99.90;;;;;;5018779;28;20293;-92
2021/08/05 06:14:17;;;;;;;1.87;0.90;;;20.20;99.90;;;;;;5023610;28;20225;-90
2021/08/05 06:16:49;;;;;;;3.23;0.80;;;20.20;99.90;;;;;;5017630;28;20209;-90
2021/08/05 06:19:20;;;;;;;1.33;0.60;;;20.10;99.90;;;;;;5015301;28;20233;-91
2021/08/05 06:21:51;;;;;;;2.93;0.70;;;20.10;99.90;;;;;;4997014;28;20229;-91
2021/08/05 06:24:23;;;;;;;1.60;0.80;;;20.10;99.90;;;;;;4997333;28;20233;-91
2021/08/05 06:26:56;;;;;;;1.73;0.80;;;20.00;99.90;;;;;;5000119;28;20236;-91
2021/08/05 06:29:30;;;;;;;2.07;0.73;;;20.00;99.90;;;;;;5005935;28;20274;-91
2021/08/05 06:32:02;;;;;;;4.23;0.90;;;19.90;99.90;;;;;;5008027;28;20217;-90
2021/08/05 06:34:33;;;;;;;3.07;0.83;;;19.90;99.90;;;;;;5003621;28;20210;-91
2021/08/05 06:37:04;;;;;;;1.93;0.73;;;19.90;99.90;;;;;;5003349;28;20233;-89
2021/08/05 06:39:36;;;;;;;1.27;0.80;;;19.90;99.90;;;;;;4999565;28;20206;-91
2021/08/05 06:42:09;;;;;;;1.17;0.87;;;19.90;99.90;;;;;;4998129;28;20214;-91
2021/08/05 06:44:40;;;;;;;1.83;0.80;;;19.90;99.90;;;;;;4999646;28;20225;-90
2021/08/05 06:47:11;;;;;;;1.97;0.80;;;19.90;99.90;;;;;;4999356;28;20297;-91
2021/08/05 06:49:43;;;;;;;2.00;1.00;;;19.80;99.90;;;;;;5002986;28;20678;-91
2021/08/05 06:52:15;;;;;;;1.93;0.83;;;19.80;99.90;;;;;;5012118;28;20276;-91
2021/08/05 06:54:46;;;;;;;5.57;0.80;;;19.70;99.90;;;;;;5002884;28;20211;-91
2021/08/05 06:57:20;;;;;;;2.67;0.83;;;19.70;99.90;;;;;;5007319;28;20194;-90
2021/08/05 06:59:51;;;;;;;1.67;0.87;;;19.70;99.90;;;;;;5003049;28;20270;-91
2021/08/05 07:02:22;;;;;;;1.43;0.77;;;19.60;99.90;;;;;;4999210;28;20241;-90
2021/08/05 07:04:54;;;;;;;2.00;0.77;;;19.60;99.90;;;;;;5000402;28;20206;-91
2021/08/05 07:07:26;;;;;;;1.53;0.80;;;19.70;99.90;;;;;;5000284;28;20217;-91
2021/08/05 07:09:59;;;;;;;2.00;0.80;;;19.60;99.90;;;;;;5010299;28;20214;-91
2021/08/05 07:12:33;;;;;;;2.13;1.07;;;19.60;99.90;;;;;;5002680;28;20226;-91
2021/08/05 07:15:04;;;;;;;1.30;0.80;;;19.60;99.90;;;;;;5020209;28;20388;-91
2021/08/05 07:17:37;;;;;;;1.67;0.57;;;19.60;99.90;;;;;;5090578;23;20237;-91
2021/08/05 07:20:09;;;;;;;2.13;1.10;;;19.60;99.90;;;;;;5019869;28;20622;-90
2021/08/05 07:22:42;;;;;;;0.90;0.70;;;19.60;99.90;;;;;;5020240;28;20263;-90
2021/08/05 07:25:16;;;;;;;1.57;0.70;;;19.60;99.90;;;;;;5018630;28;20762;-91
2021/08/05 07:27:51;;;;;;;3.10;0.80;;;19.60;99.90;;;;;;5021453;28;20244;-91
2021/08/05 07:30:25;;;;;;;1.23;0.80;;;19.60;99.90;;;;;;5020530;28;20575;-91
2021/08/05 07:32:57;;;;;;;3.40;0.60;;;19.50;99.90;;;;;;5020461;28;20225;-90
2021/08/05 07:35:28;;;;;;;2.03;0.90;;;19.50;99.90;;;;;;5023526;28;20229;-90
2021/08/05 07:38:00;;;;;;;2.23;0.70;;;19.50;99.90;;;;;;5026036;28;20244;-90
2021/08/05 07:40:35;;;;;;;2.00;0.80;;;19.50;99.90;;;;;;5028447;28;20209;-91
2021/08/05 07:43:09;;;;;;;1.63;0.60;;;19.40;99.90;;;;;;5031285;28;20220;-90
2021/08/05 07:45:40;;;;;;;2.40;1.40;;;19.50;99.90;;;;;;5029217;28;20205;-90
2021/08/05 07:48:11;;;;;;;1.37;0.57;;;19.40;99.90;;;;;;5026199;28;20240;-90
2021/08/05 07:50:43;;;;;;;1.40;0.60;;;19.40;99.90;;;;;;5026084;28;20693;-90
2021/08/05 07:53:14;;;;;;;2.07;0.63;;;19.40;99.90;;;;;;5029025;28;20229;-90
2021/08/05 07:55:45;;;;;;;1.37;0.50;;;19.40;99.90;;;;;;5033210;28;20202;-90
2021/08/05 07:58:18;;;;;;;2.67;0.60;;;19.30;99.90;;;;;;5035528;28;20214;-88
2021/08/05 08:05:59;;;;;;;3.70;0.70;;;19.30;99.90;;;;;;5053012;28;20259;-91
2021/08/05 08:08:31;;;;;;;1.40;0.80;;;19.30;99.90;;;;;;5058372;28;20233;-91
2021/08/05 08:11:02;;;;;;;1.43;0.50;;;19.30;99.90;;;;;;5051642;28;20204;-91
2021/08/05 08:13:35;;;;;;;0.97;0.50;;;19.30;99.90;;;;;;5044724;28;20291;-92
2021/08/05 08:16:07;;;;;;;0.77;0.50;;;19.20;99.90;;;;;;5044001;28;20204;-92
2021/08/05 08:18:38;;;;;;;2.10;0.57;;;19.20;99.90;;;;;;5047270;28;20673;-90
2021/08/05 08:21:10;;;;;;;2.70;0.50;;;19.20;99.90;;;;;;5047265;28;20299;-91
2021/08/05 08:23:46;;;;;;;0.57;0.50;;;19.20;99.90;;;;;;5051207;28;20205;-90
2021/08/05 08:26:17;;;;;;;1.33;0.90;;;19.20;99.90;;;;;;5048196;28;20221;-90
2021/08/05 08:28:50;;;;;;;1.40;0.57;;;19.20;99.90;;;;;;5050338;28;20225;-90
2021/08/05 08:31:21;;;;;;;1.13;0.60;;;19.20;99.90;;;;;;5048209;28;20219;-90
2021/08/05 08:33:52;;;;;;;1.53;0.60;;;19.10;99.90;;;;;;5047842;28;20232;-91
2021/08/05 08:36:24;;;;;;;0.93;0.50;;;19.10;99.90;;;;;;5046321;28;20236;-90
2021/08/05 08:38:54;;;;;;;3.60;0.60;;;19.10;99.90;;;;;;5034208;28;20236;-91
2021/08/05 08:41:26;;;;;;;1.83;0.80;;;19.10;99.90;;;;;;5023212;28;20592;-91
2021/08/05 08:44:01;;;;;;;1.97;0.70;;;19.10;99.90;;;;;;5036436;28;20217;-91
2021/08/05 08:46:35;;;;;;;0.90;0.70;;;19.10;99.90;;;;;;5040728;28;20292;-91
2021/08/05 08:49:08;;;;;;;2.30;0.70;;;19.10;99.90;;;;;;5041858;28;20223;-90
2021/08/05 08:51:40;;;;;;;1.63;0.60;;;19.10;99.90;;;;;;5043936;28;20663;-92
2021/08/05 08:54:11;;;;;;;3.23;0.90;;;19.10;99.90;;;;;;5043564;28;20276;-91
2021/08/05 08:56:43;;;;;;;1.17;0.70;;;19.10;99.90;;;;;;5043902;28;20240;-92
2021/08/05 08:59:20;;;;;;;2.33;0.60;;;19.10;99.90;;;;;;5043630;28;20205;-91
2021/08/05 09:01:52;;;;;;;2.43;0.70;;;19.10;99.90;;;;;;5023158;28;20275;-91
2021/08/05 09:04:23;;;;;;;1.07;0.57;;;19.00;99.90;;;;;;5021495;28;20232;-91
2021/08/05 09:06:58;;;;;;;1.43;0.70;;;19.00;99.90;;;;;;5007930;28;20209;-91
2021/08/05 09:09:29;;;;;;;1.97;0.57;;;19.00;99.90;;;;;;5000542;28;20210;-91
2021/08/05 09:12:01;;;;;;;2.17;0.70;;;19.00;99.90;;;;;;4999937;28;20206;-91
2021/08/05 09:14:47;;;;;;;2.20;0.60;;;18.90;99.90;;;;;;4998861;28;20237;-91
2021/08/05 09:17:26;;;;;;;2.77;0.73;;;18.90;99.90;;;;;;4998757;28;20206;-91
2021/08/05 09:19:58;;;;;;;2.03;0.60;;;18.90;99.90;;;;;;4998598;28;20245;-90
2021/08/05 09:22:34;;;;;;;0.83;0.67;;;18.80;99.90;;;;;;4997987;28;20570;-91
2021/08/05 09:25:27;;;;;;;1.00;0.60;;;18.70;99.90;;;;;;5000985;28;20292;-90
2021/08/05 09:28:00;;;;;;;1.60;0.57;;;18.70;99.90;;;;;;4998864;28;20210;-90
2021/08/05 09:30:38;;;;;;;1.77;0.50;;;18.60;99.90;;;;;;4997416;28;20298;-90
2021/08/05 09:33:11;;;;;;;0.93;0.60;;;18.60;99.90;;;;;;4998603;28;20253;-90
2021/08/05 09:35:44;;;;;;;1.77;0.90;;;18.60;99.90;;;;;;4998131;28;20293;-91
2021/08/05 09:38:23;;;;;;;1.70;0.70;;;18.50;99.90;;;;;;5000596;28;20217;-90
2021/08/05 09:41:09;;;;;;;0.97;0.60;;;18.50;99.90;;;;;;4996919;28;20292;-90
2021/08/05 09:43:41;;;;;;;1.27;0.53;;;18.40;99.90;;;;;;5009029;28;20244;-90
2021/08/05 09:46:15;;;;;;;1.23;0.60;;;18.40;99.90;;;;;;5019010;28;20231;-90
2021/08/05 09:48:47;;;;;;;3.60;0.63;;;18.40;99.90;;;;;;5017903;28;20219;-90
2021/08/05 09:51:20;;;;;;;2.13;0.70;;;18.30;99.90;;;;;;5018445;28;20208;-90
2021/08/05 09:53:59;;;;;;;1.90;0.83;;;18.30;99.90;;;;;;5016866;28;20237;-90
2021/08/05 09:56:32;;;;;;;1.10;0.60;;;18.30;99.90;;;;;;5018210;28;20213;-90
2021/08/05 09:59:08;;;;;;;1.60;0.70;;;18.20;99.90;;;;;;5017191;28;20313;-90
2021/08/05 10:01:58;;;;;;;3.20;0.70;;;18.20;99.90;;;;;;5016872;28;20205;-91
2021/08/05 10:04:31;;;;;;;0.93;0.70;;;18.20;99.90;;;;;;5016719;28;20217;-90
2021/08/05 10:07:05;;;;;;;2.27;0.50;;;18.10;99.90;;;;;;5017234;28;20707;-90
2021/08/05 10:09:38;;;;;;;1.57;0.80;;;18.10;99.90;;;;;;5017404;28;20233;-90
2021/08/05 10:12:15;;;;;;;1.63;0.70;;;18.10;99.90;;;;;;5016481;28;20244;-90
2021/08/05 10:14:47;;;;;;;1.90;0.83;;;18.00;99.90;;;;;;5017762;28;20236;-91
2021/08/05 10:17:20;;;;;;;2.80;1.13;;;18.00;99.90;;;;;;5018709;28;20228;-90
2021/08/05 10:19:51;;;;;;;2.87;1.53;;;18.00;99.90;;;;;;5035615;28;20205;-89
2021/08/05 10:22:26;;;;;;;2.73;1.10;;;18.00;99.90;;;;;;5028760;28;20201;-90
2021/08/05 10:24:59;;;;;;;1.50;0.73;;;17.90;99.90;;;;;;5036172;28;20193;-91
2021/08/05 10:27:31;;;;;;;1.60;1.07;;;17.90;99.90;;;;;;5038968;28;20197;-91
2021/08/05 10:30:03;;;;;;;2.37;0.70;;;17.90;99.90;;;;;;5028204;28;20218;-90
2021/08/05 10:32:37;;;;;;;2.50;0.97;;;17.90;99.90;;;;;;5012139;28;20225;-91
2021/08/05 10:35:09;;;;;;;3.53;0.80;;;17.90;99.90;;;;;;5003354;28;20289;-91
2021/08/05 10:37:41;;;;;;;1.30;0.80;;;17.90;99.90;;;;;;5001680;28;20301;-91
2021/08/05 10:40:14;;;;;;;2.87;0.87;;;17.80;99.90;;;;;;5000341;28;20214;-92
2021/08/05 10:42:49;;;;;;;1.80;0.73;;;17.80;99.90;;;;;;5007532;28;20289;-92
2021/08/05 10:45:21;;;;;;;1.30;0.60;;;17.80;99.90;;;;;;5027379;28;20237;-90
2021/08/05 10:47:55;;;;;;;1.40;0.77;;;17.80;99.90;;;;;;5019493;28;20244;-90
2021/08/05 10:50:26;;;;;;;1.70;0.50;;;17.80;99.90;;;;;;5019494;28;20217;-91
2021/08/05 10:52:58;;;;;;;0.90;0.70;;;17.70;99.90;;;;;;5020148;28;20209;-91
2021/08/05 10:55:32;;;;;;;1.47;0.80;;;17.70;99.90;;;;;;5019992;28;20235;-91
2021/08/05 10:58:30;;;;;;;1.73;0.70;;;17.70;99.90;;;;;;5019038;28;20272;-90
2021/08/05 11:01:06;;;;;;;2.07;0.90;;;17.70;99.90;;;;;;5002270;28;20269;-90
2021/08/05 11:03:57;;;;;;;0.93;0.70;;;17.70;99.90;;;;;;5000040;28;20725;-90
2021/08/05 11:06:38;;;;;;;2.33;0.87;;;17.60;99.90;;;;;;5005764;28;20246;-91
2021/08/05 11:09:30;;;;;;;0.90;0.57;;;17.60;99.90;;;;;;5002495;28;20226;-90
2021/08/05 11:12:40;;;;;;;1.70;0.70;;;17.60;99.90;;;;;;4984306;28;20229;-91
2021/08/05 11:15:48;;;;;;;1.37;0.63;;;17.50;99.90;;;;;;5001642;28;20304;-91
2021/08/05 11:18:21;;;;;;;2.00;0.97;;;17.50;99.90;;;;;;4995904;28;20210;-91
2021/08/05 11:21:29;;;;;;;1.43;0.80;;;17.50;99.90;;;;;;4999248;28;20244;-91
2021/08/05 11:24:00;;;;;;;1.43;0.87;;;17.50;99.90;;;;;;5000291;28;20245;-91
2021/08/05 11:26:31;;;;;;;2.00;0.77;;;17.40;99.90;;;;;;5000457;28;20300;-91
2021/08/05 11:29:02;;;;;;;2.00;0.90;;;17.40;99.90;;;;;;4999723;28;20658;-91
2021/08/05 11:31:39;;;;;;;1.67;1.17;;;17.40;99.90;;;;;;4999577;28;20293;-91
2021/08/05 11:34:16;;;;;;;1.43;0.80;;;17.40;99.90;;;;;;4999071;28;21036;-91
2021/08/05 11:37:10;;;;;;;1.97;0.83;;;17.30;99.90;;;;;;4999542;28;20261;-91
2021/08/05 11:39:52;;;;;;;2.83;1.30;;;17.30;99.90;;;;;;4999186;28;20213;-91
2021/08/05 11:42:24;;;;;;;1.90;1.00;;;17.30;99.90;;;;;;4998386;28;20210;-91
2021/08/05 11:45:11;;;;;;;1.27;0.87;;;17.30;99.90;;;;;;5021861;28;20213;-90
2021/08/05 11:47:43;;;;;;;1.37;0.67;;;17.30;99.90;;;;;;5018886;28;20213;-90
2021/08/05 11:50:19;;;;;;;3.33;0.90;;;17.30;99.90;;;;;;5018405;28;20264;-91
2021/08/05 11:53:13;;;;;;;1.13;0.80;;;17.30;99.90;;;;;;5018063;28;20228;-90
2021/08/05 11:55:47;;;;;;;2.30;1.00;;;17.30;99.90;;;;;;5017506;28;20225;-90
2021/08/05 11:58:19;;;;;;;1.03;0.80;;;17.30;99.90;;;;;;5017795;28;20287;-90
2021/08/05 12:00:50;;;;;;;3.17;0.70;;;17.20;99.90;;;;;;5016839;28;20289;-91
2021/08/05 12:03:21;;;;;;;2.90;0.80;;;17.20;99.90;;;;;;5018975;28;20214;-91
2021/08/05 12:05:53;;;;;;;2.80;0.80;;;17.20;99.90;;;;;;5019091;28;20626;-90
2021/08/05 12:08:25;;;;;;;1.40;0.80;;;17.20;99.90;;;;;;5018845;28;20744;-90
2021/08/05 12:10:57;;;;;;;5.90;1.10;;;17.20;99.90;;;;;;5016302;28;20234;-91
2021/08/05 12:13:30;;;;;;;1.50;0.77;;;17.20;99.90;;;;;;5020534;28;20213;-90
2021/08/05 12:16:05;;;;;;;1.67;0.70;;;17.10;99.90;;;;;;5018589;28;20237;-90
2021/08/05 12:18:42;;;;;;;2.70;1.10;;;17.10;99.90;;;;;;5018517;28;20300;-91
2021/08/05 12:21:15;;;;;;;2.20;0.93;;;17.10;99.90;;;;;;5017732;28;20342;-91
2021/08/05 12:23:54;;;;;;;1.73;0.60;;;17.10;99.90;;;;;;5018926;28;20210;-89
2021/08/05 12:26:35;;;;;;;2.97;0.80;;;17.00;99.90;;;;;;5018895;28;20232;-90
2021/08/05 12:29:11;;;;;;;2.40;0.80;;;17.00;99.90;;;;;;5018636;28;20209;-89
2021/08/05 12:31:44;;;;;;;1.30;0.77;;;17.00;99.90;;;;;;5018531;28;20232;-90
2021/08/05 12:34:18;;;;;;;1.27;0.73;;;17.00;99.90;;;;;;5017599;28;20202;-90
2021/08/05 12:36:49;;;;;;;2.20;0.70;;;17.00;99.90;;;;;;5021030;28;20241;-90
2021/08/05 12:39:27;;;;;;;2.47;0.80;;;17.00;99.90;;;;;;5020527;28;20210;-90
2021/08/05 12:41:59;;;;;;;1.43;0.67;;;17.00;99.90;;;;;;5019049;28;20285;-90
2021/08/05 12:44:35;;;;;;;1.70;0.90;;;17.00;99.90;;;;;;5020011;28;20341;-90
2021/08/05 12:47:07;;;;;;;3.47;1.10;;;17.00;99.90;;;;;;5025814;28;20228;-90
2021/08/05 12:49:39;;;;;;;1.97;0.87;;;16.90;99.90;;;;;;5037809;28;20186;-89
2021/08/05 12:52:15;;;;;;;1.00;0.60;;;16.90;99.90;;;;;;5035360;28;20205;-89
2021/08/05 12:54:58;;;;;;;1.07;0.83;;;16.90;99.90;;;;;;5034991;28;20210;-91
2021/08/05 13:00:32;;;;;;;1.43;0.80;;;16.90;99.90;;;;;;4987230;28;20234;-91
2021/08/05 13:03:05;;;;;;;2.10;0.90;;;16.90;99.90;;;;;;4990067;28;20220;-89
2021/08/05 13:05:36;;;;;;;2.07;0.87;;;16.90;99.90;;;;;;4991810;28;20238;-90
2021/08/05 13:08:08;;;;;;;2.97;0.83;;;16.90;99.90;;;;;;4984608;28;20238;-89
2021/08/05 13:10:48;;;;;;;3.07;1.00;;;16.90;99.90;;;;;;4981519;28;20303;-90
2021/08/05 13:13:49;;;;;;;3.07;1.03;;;16.80;99.90;;;;;;4983161;28;20299;-90
2021/08/05 13:16:25;;;;;;;1.43;0.80;;;16.90;99.90;;;;;;4984110;28;20238;-90
2021/08/05 13:19:13;;;;;;;2.93;0.70;;;16.80;99.90;;;;;;4982128;28;20245;-89
2021/08/05 13:21:59;;;;;;;1.03;0.70;;;16.80;99.90;;;;;;4982706;28;20237;-89
2021/08/05 13:24:32;;;;;;;1.97;0.80;;;16.90;99.90;;;;;;4987835;28;20212;-90
2021/08/05 13:27:19;;;;;;;1.57;0.80;;;16.90;99.90;;;;;;4995719;28;20222;-90
2021/08/05 13:29:52;;;;;;;0.87;0.67;;;16.90;99.90;;;;;;4993615;28;20215;-89
2021/08/05 13:32:24;;;;;;;3.47;0.80;;;16.90;99.90;;;;;;4983856;28;20211;-90
2021/08/05 13:35:05;;;;;;;7.03;0.90;;;17.00;99.90;;;;;;4983182;28;20214;-90
2021/08/05 13:38:00;;;;;;;3.57;0.87;;;17.00;99.90;;;;;;4993533;28;20207;-91
2021/08/05 13:40:35;;;;;;;1.90;1.00;;;17.00;99.90;;;;;;4978377;28;20642;-89
2021/08/05 13:43:14;;;;;;;0.90;0.70;;;17.00;99.90;;;;;;4981283;28;20545;-91
2021/08/05 13:45:47;;;;;;;4.17;0.90;;;17.00;99.90;;;;;;4978527;28;20234;-91
2021/08/05 13:48:19;;;;;;;1.13;0.70;;;17.00;99.90;;;;;;4992793;28;20222;-91
2021/08/05 13:50:50;;;;;;;2.70;1.03;;;17.10;99.90;;;;;;4976670;28;20718;-91
2021/08/05 13:53:21;;;;;;;2.43;0.80;;;17.10;99.90;;;;;;4980159;28;20230;-91
2021/08/05 13:55:53;;;;;;;3.03;0.87;;;17.10;99.90;;;;;;4977635;28;20269;-91
2021/08/05 13:58:26;;;;;;;1.80;0.93;;;17.20;99.90;;;;;;4978506;28;20242;-90
2021/08/05 14:00:58;;;;;;;4.20;1.07;;;17.20;99.90;;;;;;4977308;28;20237;-91
2021/08/05 14:03:30;;;;;;;1.10;0.80;;;17.20;99.90;;;;;;4978118;28;20207;-91
2021/08/05 14:06:01;;;;;;;3.83;1.27;;;17.30;99.90;;;;;;4980839;28;20227;-90
2021/08/05 14:08:32;;;;;;;1.90;0.97;;;17.30;99.90;;;;;;4977895;28;20233;-91
2021/08/05 14:11:04;;;;;;;2.23;0.97;;;17.40;99.90;;;;;;4976948;28;20207;-91
2021/08/05 14:13:37;;;;;;;2.67;1.13;;;17.40;99.90;;;;;;4966740;28;20242;-90